Flight Track Log - Related Links

Times and Time Zones

All times are in EDT time to prevent confusion due to time zone crossing. See the N662US flight status page for this flight to view local times or setup timezone preferences in your user account.

Time Position Orientation Groundspeed Altitude Reporting Facility
EDT Latitude Longitude Course Direction KTS MPH feet Rate Location/Type
Mon 09:10:00 PM 31.1844 121.9152 68° East  Level Estimated
Mon 09:11:00 PM 31.2258 122.0382 68° East  Level Estimated
Mon 09:12:00 PM 31.2672 122.1612 69° East  Level Estimated
Mon 09:13:00 PM 31.3084 122.2844 69° East  Level Estimated
Mon 09:14:00 PM 31.3495 122.4076 69° East  Level Estimated
Mon 09:15:00 PM 31.3904 122.5310 69° East  Level Estimated
Mon 09:16:00 PM 31.4313 122.6545 69° East  Level Estimated
Mon 09:17:00 PM 31.4720 122.7781 69° East  Level Estimated
Mon 09:18:00 PM 31.5127 122.9018 69° East  Level Estimated
Mon 09:19:00 PM 31.5532 123.0256 69° East  Level Estimated
Mon 09:20:00 PM 31.5936 123.1495 69° East  Level Estimated
Mon 09:21:00 PM 31.6339 123.2735 69° East  Level Estimated
Mon 09:22:00 PM 31.6740 123.3977 69° East  Level Estimated
Mon 09:22:45 PM 31.1890 121.8140 69° East 172 198 1,800  Level FlightAware ADS-B
Mon 09:23:00 PM 31.7155 123.5264 69° East  Level Estimated
Mon 09:23:11 PM 31.2060 121.8220 22° Northeast 172 198 1,800  Level FlightAware ADS-B
Mon 09:24:05 PM 31.2770 121.8320 North 260 299 4,500 3,000 Climbing FlightAware ADS-B
Mon 09:24:41 PM 31.3230 121.8400 North 274 315 6,300 3,000 Climbing FlightAware ADS-B
Mon 09:25:05 PM 31.3540 121.8450 North 281 323 7,500 2,923 Climbing FlightAware ADS-B
Mon 09:25:20 PM 31.3720 121.8570 30° Northeast 289 333 8,200 2,538 Climbing FlightAware ADS-B
Mon 09:25:31 PM 31.3800 121.8670 47° Northeast 289 333 8,600 2,464 Climbing FlightAware ADS-B
Mon 09:26:16 PM 31.4090 121.9240 59° Northeast 303 349 10,500 1,906 Climbing FlightAware ADS-B
Mon 09:26:56 PM 31.4400 121.9890 61° Northeast 359 413 11,300 1,500 Climbing FlightAware ADS-B
Mon 09:27:36 PM 31.4780 122.0650 60° Northeast 401 461 12,500 1,465 Climbing FlightAware ADS-B
Mon 09:28:22 PM 31.5170 122.1490 61° Northeast 409 471 13,400 2,259 Climbing FlightAware ADS-B
Mon 09:29:01 PM 31.5590 122.2320 59° Northeast 434 499 15,700 1,643 Climbing FlightAware ADS-B
Mon 09:29:46 PM 31.5990 122.3170 61° Northeast 435 501 15,700 1,482 Level FlightAware ADS-B
Mon 09:30:26 PM 31.6320 122.4200 69° East 445 512 17,800 2,250 Climbing FlightAware ADS-B
Mon 09:31:06 PM 31.6450 122.5150 81° East 461 531 18,700 628 Climbing FlightAware ADS-B
Mon 09:31:52 PM 31.6590 122.6190 81° East 462 532 18,700  Level FlightAware ADS-B
Mon 09:32:29 PM 31.6690 122.6970 81° East 462 532 18,700  Level FlightAware ADS-B
Mon 09:33:18 PM 31.6830 122.8010 81° East 462 532 18,700 659 Level FlightAware ADS-B
Mon 09:33:51 PM 31.7000 122.9300 81° East 479 551 19,600 635 Climbing FlightAware ADS-B
Mon 09:34:43 PM 31.7130 123.0440 82° East 479 551 19,600  Level FlightAware ADS-B
Mon 09:35:20 PM 31.7230 123.1250 82° East 479 551 19,600  Level FlightAware ADS-B
Mon 09:36:08 PM 31.7350 123.2300 82° East 479 551 19,600  Level FlightAware ADS-B
Mon 09:36:46 PM 31.7450 123.3140 82° East 479 551 19,600  Level FlightAware ADS-B
Mon 09:37:23 PM 31.7550 123.3950 82° East 479 551 19,600 534 Level FlightAware ADS-B
Mon 09:40:00 PM 31.8618 123.7330 70° East  Level Estimated
Mon 09:41:00 PM 31.9024 123.8624 70° East  Level Estimated
Mon 09:42:00 PM 31.9431 123.9929 70° East  Level Estimated
Mon 09:43:00 PM 31.9837 124.1235 70° East  Level Estimated
Mon 09:44:00 PM 32.0242 124.2542 70° East  Level Estimated
Mon 09:45:00 PM 32.0645 124.3850 70° East  Level Estimated
Mon 09:46:00 PM 32.1047 124.5159 70° East  Level Estimated
Mon 09:47:00 PM 32.1448 124.6469 70° East  Level Estimated
Mon 09:48:00 PM 32.1847 124.7781 70° East  Level Estimated
Mon 09:49:00 PM 32.2245 124.9093 70° East  Level Estimated
Mon 09:50:00 PM 32.2642 125.0407 70° East  Level Estimated
Mon 09:51:00 PM 32.3037 125.1722 70° East  Level Estimated
Mon 09:52:00 PM 32.3431 125.3038 70° East  Level Estimated
Mon 09:53:00 PM 32.3824 125.4355 71° East  Level Estimated
Mon 09:54:00 PM 32.4215 125.5674 71° East  Level Estimated
Mon 09:55:00 PM 32.4605 125.6993 71° East  Level Estimated
Mon 09:56:00 PM 32.4993 125.8314 71° East  Level Estimated
Mon 09:57:00 PM 32.5380 125.9636 71° East  Level Estimated
Mon 09:58:00 PM 32.5766 126.0958 71° East  Level Estimated
Mon 09:59:00 PM 32.6150 126.2283 71° East  Level Estimated
Mon 10:00:00 PM 32.6533 126.3608 71° East  Level Estimated
Mon 10:01:00 PM 32.6914 126.4934 71° East  Level Estimated
Mon 10:02:00 PM 32.7294 126.6262 71° East  Level Estimated
Mon 10:03:00 PM 32.7673 126.7590 71° East  Level Estimated
Mon 10:04:00 PM 32.8050 126.8920 71° East  Level Estimated
Mon 10:05:00 PM 32.8426 127.0251 71° East  Level Estimated
Mon 10:06:00 PM 32.8801 127.1583 71° East  Level Estimated
Mon 10:07:00 PM 32.9174 127.2916 72° East  Level Estimated
Mon 10:08:00 PM 32.9545 127.4250 72° East  Level Estimated
Mon 10:09:00 PM 32.9916 127.5585 72° East  Level Estimated
Mon 10:10:00 PM 33.0284 127.6922 72° East  Level Estimated
Mon 10:11:00 PM 33.0652 127.8259 72° East  Level Estimated
Mon 10:12:00 PM 33.1018 127.9598 72° East  Level Estimated
Mon 10:13:00 PM 33.1382 128.0938 72° East  Level Estimated
Mon 10:13:07 PM 32.7150 129.1990 72° East 503 579 39,000  Level FlightAware ADS-B
Mon 10:13:47 PM 32.7430 129.3010 72° East 503 579 39,000  Level FlightAware ADS-B
Mon 10:14:00 PM 33.1745 128.2279 72° East  Level Estimated
Mon 10:14:32 PM 32.7750 129.4230 73° East 503 579 39,000  Level FlightAware ADS-B
Mon 10:15:12 PM 32.8030 129.5310 73° East 503 579 39,000  Level FlightAware ADS-B
Mon 10:15:57 PM 32.8310 129.6420 73° East 500 575 39,000  Level FlightAware ADS-B
Mon 10:16:42 PM 32.8560 129.7710 77° East 502 578 39,000  Level FlightAware ADS-B
Mon 10:17:22 PM 32.8720 129.8830 80° East 505 581 39,000  Level FlightAware ADS-B
Mon 10:18:02 PM 32.8870 129.9870 80° East 505 581 39,000  Level FlightAware ADS-B
Mon 10:18:47 PM 32.9050 130.1120 80° East 505 581 39,000  Level FlightAware ADS-B
Mon 10:19:27 PM 32.9200 130.2220 81° East 504 580 39,000  Level FlightAware ADS-B
Mon 10:20:03 PM 32.9340 130.3150 80° East 503 579 39,000  Level FlightAware ADS-B
Mon 10:20:48 PM 32.9520 130.4430 80° East 503 579 39,000  Level FlightAware ADS-B
Mon 10:21:33 PM 32.9690 130.5660 81° East 503 579 39,000  Level FlightAware ADS-B
Mon 10:22:18 PM 32.9860 130.6890 81° East 503 579 39,000  Level FlightAware ADS-B
Mon 10:22:58 PM 33.0010 130.7980 81° East 502 578 39,000  Level FlightAware ADS-B
Mon 10:23:39 PM 33.0160 130.9100 81° East 501 577 39,000  Level FlightAware ADS-B
Mon 10:24:18 PM 33.0300 131.0130 81° East 501 577 39,000  Level FlightAware ADS-B
Mon 10:25:04 PM 33.0470 131.1340 80° East 502 578 39,000  Level FlightAware ADS-B
Mon 10:25:44 PM 33.0620 131.2510 81° East 499 574 39,000  Level FlightAware ADS-B
Mon 10:26:28 PM 33.0770 131.3600 81° East 498 573 39,000  Level FlightAware ADS-B
Mon 10:27:08 PM 33.0920 131.4790 81° East 497 572 39,000  Level FlightAware ADS-B
Mon 10:27:48 PM 33.1050 131.5800 81° East 496 571 39,000  Level FlightAware ADS-B
Mon 10:28:34 PM 33.1230 131.7120 81° East 495 570 39,000  Level FlightAware ADS-B
Mon 10:29:16 PM 33.1360 131.8180 82° East 495 570 39,000  Level FlightAware ADS-B
Mon 10:29:59 PM 33.1530 131.9470 81° East 497 572 39,000  Level FlightAware ADS-B
Mon 10:30:39 PM 33.1670 132.0550 81° East 497 572 39,000  Level FlightAware ADS-B
Mon 10:31:20 PM 33.1800 132.1640 82° East 498 573 39,000  Level FlightAware ADS-B
Mon 10:32:04 PM 33.1960 132.2860 81° East 499 574 39,000  Level FlightAware ADS-B
Mon 10:32:44 PM 33.2090 132.3950 82° East 499 574 39,000  Level FlightAware ADS-B
Mon 10:33:26 PM 33.2220 132.5010 82° East 499 574 39,000  Level FlightAware ADS-B
Mon 10:34:09 PM 33.2380 132.6260 81° East 499 574 39,000  Level FlightAware ADS-B
Mon 10:34:50 PM 33.2500 132.7330 82° East 500 575 39,000  Level FlightAware ADS-B
Mon 10:35:34 PM 33.2660 132.8580 81° East 500 575 39,000  Level FlightAware ADS-B
Mon 10:36:19 PM 33.2800 132.9760 82° East 501 577 39,000  Level FlightAware ADS-B
Mon 10:36:59 PM 33.2920 133.0820 82° East 500 575 39,000  Level FlightAware ADS-B
Mon 10:37:36 PM 33.3030 133.1700 81° East 500 575 39,000  Level FlightAware ADS-B
Mon 10:38:21 PM 33.3180 133.3040 82° East 500 575 39,000  Level FlightAware ADS-B
Mon 10:38:59 PM 33.3300 133.4080 82° East 501 577 39,000  Level FlightAware ADS-B
Mon 10:39:44 PM 33.3440 133.5290 82° East 501 577 39,000  Level FlightAware ADS-B
Mon 10:40:21 PM 33.3560 133.6330 82° East 500 575 39,000  Level FlightAware ADS-B
Mon 10:41:10 PM 33.3720 133.7700 82° East 501 577 39,000  Level FlightAware ADS-B
Mon 10:41:49 PM 33.3840 133.8830 83° East 502 578 39,000  Level FlightAware ADS-B
Mon 10:42:34 PM 33.3980 134.0070 82° East 502 578 39,000  Level FlightAware ADS-B
Mon 10:43:14 PM 33.4100 134.1170 83° East 503 579 39,000  Level FlightAware ADS-B
Mon 10:43:59 PM 33.4230 134.2410 83° East 502 578 39,000  Level FlightAware ADS-B
Mon 10:44:39 PM 33.4350 134.3510 83° East 502 578 39,000  Level FlightAware ADS-B
Mon 10:45:24 PM 33.4490 134.4750 82° East 502 578 39,000  Level FlightAware ADS-B
Mon 10:46:04 PM 33.4600 134.5850 83° East 503 579 39,000  Level FlightAware ADS-B
Mon 10:46:49 PM 33.4730 134.7090 83° East 502 578 39,000  Level FlightAware ADS-B
Mon 10:47:29 PM 33.4850 134.8190 83° East 502 578 39,000  Level FlightAware ADS-B
Mon 10:48:09 PM 33.4960 134.9300 83° East 502 578 39,000  Level FlightAware ADS-B
Mon 10:48:49 PM 33.5070 135.0400 83° East 503 579 39,000  Level FlightAware ADS-B
Mon 10:49:29 PM 33.5190 135.1510 83° East 503 579 39,000  Level FlightAware ADS-B
Mon 10:50:14 PM 33.5310 135.2750 83° East 504 580 39,000  Level FlightAware ADS-B
Mon 10:50:59 PM 33.5440 135.4000 83° East 503 579 39,000  Level FlightAware ADS-B
Mon 10:51:39 PM 33.5540 135.5100 84° East 501 577 39,000  Level FlightAware ADS-B
Mon 10:52:24 PM 33.5660 135.6310 83° East 500 575 39,000  Level FlightAware ADS-B
Mon 10:53:04 PM 33.5760 135.7390 84° East 501 577 39,000  Level FlightAware ADS-B
Mon 10:53:44 PM 33.5870 135.8520 83° East 501 577 39,000  Level FlightAware ADS-B
Mon 10:54:29 PM 33.5990 135.9780 83° East 500 575 39,000  Level FlightAware ADS-B
Mon 10:55:09 PM 33.6100 136.0880 83° East 499 574 39,000  Level FlightAware ADS-B
Mon 10:55:49 PM 33.6200 136.1960 84° East 499 574 39,000  Level FlightAware ADS-B
Mon 10:56:34 PM 33.6310 136.3220 84° East 500 575 39,000  Level FlightAware ADS-B
Mon 10:57:14 PM 33.6410 136.4250 83° East 500 575 39,000  Level FlightAware ADS-B
Mon 10:58:07 PM 33.6540 136.5710 84° East 500 575 39,000  Level FlightAware ADS-B
Mon 10:58:56 PM 33.6660 136.7060 84° East 499 574 39,000  Level FlightAware ADS-B
Mon 10:59:32 PM 33.6740 136.8020 84° East 500 575 39,000  Level FlightAware ADS-B
Mon 11:00:19 PM 33.6850 136.9290 84° East 500 575 39,000  Level FlightAware ADS-B
Mon 11:01:01 PM 33.6950 137.0480 84° East 500 575 39,000  Level FlightAware ADS-B
Mon 11:01:44 PM 33.7100 137.1630 81° East 499 574 39,000  Level FlightAware ADS-B
Mon 11:02:19 PM 33.7280 137.2630 78° East 498 573 39,000  Level FlightAware ADS-B
Mon 11:03:03 PM 33.7510 137.3840 77° East 498 573 39,000  Level FlightAware ADS-B
Mon 11:03:48 PM 33.7730 137.5040 78° East 498 573 39,000  Level FlightAware ADS-B
Mon 11:04:26 PM 33.7920 137.6070 77° East 500 575 39,000  Level FlightAware ADS-B
Mon 11:05:14 PM 33.8150 137.7380 78° East 501 577 39,000  Level FlightAware ADS-B
Mon 11:05:57 PM 33.8370 137.8580 78° East 501 577 39,000  Level FlightAware ADS-B
Mon 11:06:35 PM 33.8550 137.9590 78° East 502 578 39,000  Level FlightAware ADS-B
Mon 11:07:22 PM 33.8790 138.0910 78° East 503 579 39,000  Level FlightAware ADS-B
Mon 11:07:54 PM 33.8980 138.1750 75° East 502 578 39,000  Level FlightAware ADS-B
Mon 11:08:45 PM 33.9330 138.3110 73° East 502 578 39,000 -207 Level FlightAware ADS-B
Mon 11:09:21 PM 33.9580 138.4070 73° East 500 575 38,700 -1,026 Descending FlightAware ADS-B
Mon 11:10:01 PM 33.9880 138.5170 72° East 507 583 37,700 -1,271 Descending FlightAware ADS-B
Mon 11:10:46 PM 34.0160 138.6220 72° East 508 585 36,900 -1,098 Descending FlightAware ADS-B
Mon 11:11:23 PM 34.0480 138.7390 72° East 510 587 36,200 -1,027 Descending FlightAware ADS-B
Mon 11:12:37 PM 34.1010 138.9380 72° East 514 592 35,000 -1,008 Descending FlightAware ADS-B
Mon 11:13:22 PM 34.1350 139.0700 73° East 516 594 34,200 -1,000 Descending FlightAware ADS-B
Mon 11:14:07 PM 34.1670 139.1920 72° East 521 600 33,500 -900 Descending FlightAware ADS-B
Mon 11:14:42 PM 34.1910 139.2850 73° East 523 602 33,000 -608 Descending FlightAware ADS-B
Mon 11:15:26 PM 34.2250 139.4120 72° East 516 594 32,700 -500 Descending FlightAware ADS-B
Mon 11:16:06 PM 34.2500 139.5120 73° East 514 592 32,300 -706 Descending FlightAware ADS-B
Mon 11:16:51 PM 34.2850 139.6470 73° East 515 593 31,700 -800 Descending FlightAware ADS-B
Mon 11:17:36 PM 34.3180 139.7740 73° East 519 597 31,100 -635 Descending FlightAware ADS-B
Mon 11:18:16 PM 34.3430 139.8750 73° East 520 598 30,800 -444 Descending FlightAware ADS-B
Mon 11:18:57 PM 34.3820 139.9940 68° East 513 590 30,500 -434 Descending FlightAware ADS-B
Mon 11:19:39 PM 34.4270 140.0870 60° Northeast 503 579 30,200 -706 Descending FlightAware ADS-B
Mon 11:20:22 PM 34.4870 140.2020 58° Northeast 500 575 29,500 -1,643 Descending FlightAware ADS-B
Mon 11:21:03 PM 34.5350 140.2950 58° Northeast 493 567 27,900 -1,407 Descending FlightAware ADS-B
Mon 11:21:43 PM 34.5780 140.3780 58° Northeast 484 557 27,600 -1,129 Descending FlightAware ADS-B
Mon 11:22:28 PM 34.6340 140.4870 58° Northeast 464 534 26,300 -1,724 Descending FlightAware ADS-B
Mon 11:23:10 PM 34.6840 140.5780 56° Northeast 457 526 25,100 -1,880 Descending FlightAware ADS-B
Mon 11:23:51 PM 34.7530 140.6380 36° Northeast 430 495 23,700 -2,414 Descending FlightAware ADS-B
Mon 11:24:37 PM 34.8420 140.6630 13° North 426 490 21,600 -3,146 Descending FlightAware ADS-B
Mon 11:25:13 PM 34.9090 140.6740 North 436 502 19,400 -3,722 Descending FlightAware ADS-B
Mon 11:25:56 PM 35.0000 140.6910 North 437 503 16,700 -3,279 Descending FlightAware ADS-B
Mon 11:26:39 PM 35.0850 140.7080 North 423 487 14,700 -2,791 Descending FlightAware ADS-B
Mon 11:27:22 PM 35.1650 140.7230 North 403 464 12,700 -2,927 Descending FlightAware ADS-B
Mon 11:28:01 PM 35.2450 140.7210 359° North 402 463 10,700 -1,950 Descending FlightAware ADS-B
Mon 11:28:42 PM 35.3180 140.7140 356° North 359 413 10,100 -488 Descending FlightAware ADS-B
Mon 11:29:27 PM 35.3890 140.7070 355° North 320 368 10,000 -80 Descending FlightAware ADS-B
Mon 11:29:57 PM 35.4290 140.7030 355° North 289 333 10,000 -655 Level FlightAware ADS-B
Mon 11:30:22 PM 35.4640 140.6930 347° North 284 327 9,400 -1,418 Descending FlightAware ADS-B
Mon 11:30:52 PM 35.5030 140.6810 346° North 284 327 8,700 -1,400 Descending FlightAware ADS-B
Mon 11:31:22 PM 35.5420 140.6680 345° North 283 326 8,000 -778 Descending FlightAware ADS-B
Mon 11:31:46 PM 35.5740 140.6590 347° North 281 323 8,000  Level FlightAware ADS-B
Mon 11:32:12 PM 35.6090 140.6480 346° North 281 323 8,000  Level FlightAware ADS-B
Mon 11:32:42 PM 35.6470 140.6350 344° North 285 328 8,000 -600 Level FlightAware ADS-B
Mon 11:33:12 PM 35.6840 140.6160 337° Northwest 282 325 7,400 -1,263 Descending FlightAware ADS-B
Mon 11:33:39 PM 35.7120 140.6010 336° Northwest 281 323 6,800 -1,263 Descending FlightAware ADS-B
Mon 11:34:09 PM 35.7490 140.5790 334° Northwest 267 307 6,200 -814 Descending FlightAware ADS-B
Mon 11:34:38 PM 35.7820 140.5590 334° Northwest 282 325 6,000 -145 Descending FlightAware ADS-B
Mon 11:35:32 PM 35.8450 140.5200 333° Northwest 267 307 6,000  Level FlightAware ADS-B
Mon 11:35:47 PM 35.8570 140.5130 335° Northwest 267 307 6,000  Level FlightAware ADS-B
Mon 11:36:11 PM 35.8860 140.4950 333° Northwest 267 307 6,000  Level FlightAware ADS-B
Mon 11:36:43 PM 35.9220 140.4710 332° Northwest 263 303 6,000 -300 Level FlightAware ADS-B
Mon 11:37:11 PM 35.9380 140.4380 301° West 259 298 5,700 -857 Descending FlightAware ADS-B
Mon 11:37:39 PM 35.9460 140.3990 284° West 243 280 5,200 -1,269 Descending FlightAware ADS-B
Mon 11:38:03 PM 35.9520 140.3690 284° West 234 269 4,600 -1,615 Descending FlightAware ADS-B
Mon 11:38:31 PM 35.9520 140.3340 270° West 229 264 3,800 -1,729 Descending FlightAware ADS-B
Mon 11:39:02 PM 35.9420 140.2940 253° West 230 265 2,900 -1,429 Descending FlightAware ADS-B
Mon 11:39:13 PM 35.9360 140.2840 233° Southwest 225 259 2,800 -207 Descending FlightAware ADS-B
Mon 11:39:31 PM 35.9230 140.2750 209° Southwest 214 246 2,800  Level FlightAware ADS-B
Mon 11:39:43 PM 35.9090 140.2730 187° South 177 204 2,800 -150 Level FlightAware ADS-B
Mon 11:40:11 PM 35.8910 140.2820 158° South 160 184 2,700 -517 Descending FlightAware ADS-B
Mon 11:40:41 PM 35.8730 140.2960 148° Southeast 154 177 2,300 -764 Descending FlightAware ADS-B
Mon 11:41:06 PM 35.8580 140.3070 149° Southeast 158 182 2,000 -764 Descending FlightAware ADS-B
Mon 11:41:36 PM 35.8400 140.3200 150° Southeast 157 181 1,600 -429 Descending FlightAware ADS-B
Mon 11:42:02 PM 35.8260 140.3300 150° Southeast 157 181 1,600  Level FlightAware ADS-B
Mon 11:44:00 PM 35.7647 140.3864 143° Southeast  Level Estimated

Login

Don't have an account? Register now (free) for customized features, flight alerts, and more!